Time;durP1;ratioP1;P1;durP2;ratioP2;P2;SDS_P1;SDS_P2;PMS_P1;PMS_P2;Temp;Humidity;BMP_temperature;BMP_pressure;BME280_temperature;BME280_humidity;BME280_pressure;Samples;Min_cycle;Max_cycle;Signal;HPM_P1;HPM_P2
2021/04/18 00:02:04;;;;;;;22.65;17.73;;;9.70;69.10;;;;;;5013270;28;20022;-62
2021/04/18 00:04:30;;;;;;;20.67;16.45;;;9.70;69.10;;;;;;5012777;28;20057;-62
2021/04/18 00:06:55;;;;;;;22.13;16.30;;;9.60;69.10;;;;;;5013015;28;20026;-62
2021/04/18 00:09:21;;;;;;;27.40;15.85;;;9.60;69.30;;;;;;5009909;28;20110;-62
2021/04/18 00:11:47;;;;;;;23.60;16.83;;;9.60;69.50;;;;;;4993347;28;20034;-62
2021/04/18 00:14:13;;;;;;;23.15;17.63;;;9.60;69.60;;;;;;4993346;28;20080;-62
2021/04/18 00:16:38;;;;;;;23.60;17.63;;;9.60;69.60;;;;;;4993214;28;20022;-62
2021/04/18 00:19:05;;;;;;;24.52;18.13;;;9.60;69.60;;;;;;4993206;28;20029;-62
2021/04/18 00:21:32;;;;;;;24.42;18.17;;;9.50;69.50;;;;;;4993222;28;20022;-62
2021/04/18 00:23:57;;;;;;;25.27;18.48;;;9.50;69.60;;;;;;4993210;28;20105;-62
2021/04/18 00:26:23;;;;;;;24.48;18.70;;;9.50;69.60;;;;;;4993188;28;20085;-62
2021/04/18 00:28:49;;;;;;;26.98;19.13;;;9.50;69.50;;;;;;4993141;28;20037;-62
2021/04/18 00:31:14;;;;;;;24.45;17.85;;;9.50;69.50;;;;;;4993003;28;20467;-62
2021/04/18 00:33:40;;;;;;;28.02;19.42;;;9.50;69.60;;;;;;4993124;28;20453;-62
2021/04/18 00:36:07;;;;;;;27.67;18.70;;;9.50;69.60;;;;;;4993083;28;20072;-62
2021/04/18 00:38:33;;;;;;;25.70;19.08;;;9.40;69.60;;;;;;4993080;28;20026;-62
2021/04/18 00:40:59;;;;;;;25.75;18.50;;;9.50;69.60;;;;;;4993051;28;20018;-62
2021/04/18 00:43:24;;;;;;;22.40;17.98;;;9.50;69.60;;;;;;4993302;28;20026;-62
2021/04/18 00:45:50;;;;;;;24.55;17.70;;;9.40;69.60;;;;;;4993091;28;20048;-62
2021/04/18 00:48:16;;;;;;;24.77;17.98;;;9.50;69.60;;;;;;4992965;28;20030;-62
2021/04/18 00:50:41;;;;;;;23.02;17.35;;;9.40;69.60;;;;;;4992860;28;20026;-62
2021/04/18 00:53:08;;;;;;;24.27;18.30;;;9.40;69.90;;;;;;5010394;28;20057;-62
2021/04/18 00:55:39;;;;;;;25.10;16.83;;;9.40;70.00;;;;;;5016333;28;20033;-62
2021/04/18 00:58:06;;;;;;;;;;;9.40;69.90;;;;;;5016857;28;20041;-62
2021/04/18 01:00:32;;;;;;;17.10;13.90;;;9.40;69.90;;;;;;5016404;28;19909;-62
2021/04/18 01:02:58;;;;;;;23.38;14.43;;;9.40;70.00;;;;;;5015835;28;20044;-62
2021/04/18 01:05:24;;;;;;;17.30;14.23;;;9.40;70.00;;;;;;5016032;28;20316;-62
2021/04/18 01:07:49;;;;;;;17.95;13.35;;;9.40;70.10;;;;;;5015985;28;20030;-64
2021/04/18 01:10:17;;;;;;;16.52;13.57;;;9.40;70.00;;;;;;5015802;28;20025;-62
2021/04/18 01:12:43;;;;;;;16.05;13.23;;;9.40;70.00;;;;;;5016038;28;20466;-62
2021/04/18 01:15:11;;;;;;;15.27;11.80;;;9.40;70.10;;;;;;5015846;28;20041;-62
2021/04/18 01:17:37;;;;;;;17.30;13.15;;;9.40;70.20;;;;;;5015431;28;20026;-62
2021/04/18 01:20:05;;;;;;;14.65;12.32;;;9.40;70.20;;;;;;4998049;28;20113;-62
2021/04/18 01:22:31;;;;;;;15.63;12.70;;;9.40;70.20;;;;;;5013935;28;20072;-62
2021/04/18 01:24:56;;;;;;;14.82;12.82;;;9.40;70.10;;;;;;5015482;28;20056;-62
2021/04/18 01:27:23;;;;;;;17.02;12.80;;;9.40;70.10;;;;;;5015538;28;20041;-62
2021/04/18 01:29:50;;;;;;;16.00;12.95;;;9.40;70.80;;;;;;5015826;28;20029;-62
2021/04/18 01:32:20;;;;;;;17.30;13.00;;;9.50;70.10;;;;;;5015585;28;20474;-62
2021/04/18 01:34:47;;;;;;;14.73;12.55;;;9.40;70.10;;;;;;4998055;28;20493;-62
2021/04/18 01:37:14;;;;;;;17.35;12.60;;;9.50;70.20;;;;;;5013834;28;20025;-62
2021/04/18 01:39:40;;;;;;;15.50;12.52;;;9.40;70.10;;;;;;5015174;28;20027;-62
2021/04/18 01:42:07;;;;;;;14.43;12.38;;;9.40;70.30;;;;;;5014952;28;20056;-62
2021/04/18 01:44:33;;;;;;;13.05;11.45;;;9.40;70.30;;;;;;5015313;28;20036;-62
2021/04/18 01:46:59;;;;;;;13.88;11.73;;;9.50;70.40;;;;;;5014943;28;20474;-62
2021/04/18 01:49:25;;;;;;;15.40;12.38;;;9.50;70.40;;;;;;5015051;28;20022;-62
2021/04/18 01:51:50;;;;;;;13.95;11.15;;;9.50;70.50;;;;;;5014983;28;20515;-62
2021/04/18 01:54:16;;;;;;;13.25;10.90;;;9.50;70.40;;;;;;5015059;28;20029;-62
2021/04/18 01:56:42;;;;;;;12.38;10.77;;;9.50;70.40;;;;;;5014850;28;20026;-62
2021/04/18 01:59:07;;;;;;;13.63;10.68;;;9.50;70.40;;;;;;5014882;28;20029;-62
2021/04/18 02:01:37;;;;;;;12.68;10.60;;;9.50;70.40;;;;;;5014915;28;20100;-62
2021/04/18 02:04:16;;;;;;;14.88;11.73;;;9.60;70.40;;;;;;5014086;28;20054;-62
2021/04/18 02:06:42;;;;;;;14.88;10.82;;;9.60;70.40;;;;;;5014817;28;20474;-62
2021/04/18 02:09:08;;;;;;;14.35;12.73;;;9.60;70.50;;;;;;5014928;28;20037;-62
2021/04/18 02:11:38;;;;;;;14.27;11.32;;;9.60;70.40;;;;;;5000250;28;20600;-62
2021/04/18 02:14:05;;;;;;;14.73;12.32;;;9.60;70.30;;;;;;4995038;28;20109;-62
2021/04/18 02:16:31;;;;;;;16.55;12.82;;;9.60;70.40;;;;;;4994925;28;20018;-62
2021/04/18 02:18:57;;;;;;;14.00;12.27;;;9.60;70.20;;;;;;4994977;28;20073;-62
2021/04/18 02:21:22;;;;;;;13.25;11.10;;;9.60;70.30;;;;;;4994682;28;20026;-62
2021/04/18 02:23:48;;;;;;;13.93;11.88;;;9.60;70.30;;;;;;4994839;28;20026;-62
2021/04/18 02:26:14;;;;;;;14.60;11.60;;;9.60;70.30;;;;;;4994746;28;20154;-62
2021/04/18 02:28:39;;;;;;;15.93;12.73;;;9.60;70.50;;;;;;4994701;28;20019;-62
2021/04/18 02:31:05;;;;;;;15.10;12.50;;;9.60;70.40;;;;;;4994653;28;20026;-62
2021/04/18 02:33:31;;;;;;;15.43;12.75;;;9.60;70.40;;;;;;4994519;28;20022;-62
2021/04/18 02:35:56;;;;;;;15.90;12.40;;;9.50;70.00;;;;;;4994590;28;20076;-62
2021/04/18 02:38:22;;;;;;;16.08;12.63;;;9.50;70.20;;;;;;4994468;28;20076;-62
2021/04/18 02:40:47;;;;;;;17.23;13.10;;;9.50;70.30;;;;;;4994460;28;20041;-62
2021/04/18 02:43:13;;;;;;;17.75;13.20;;;9.50;70.30;;;;;;4994264;28;20486;-62
2021/04/18 02:45:39;;;;;;;17.48;14.18;;;9.50;70.30;;;;;;4994384;28;20230;-62
2021/04/18 02:48:05;;;;;;;18.92;14.73;;;9.40;70.40;;;;;;4994351;28;20109;-62
2021/04/18 02:50:30;;;;;;;16.45;13.32;;;9.40;70.40;;;;;;4994195;28;20026;-62
2021/04/18 02:52:56;;;;;;;14.77;12.90;;;9.40;70.40;;;;;;5006879;28;20022;-62
2021/04/18 02:55:21;;;;;;;17.52;13.85;;;9.40;70.40;;;;;;5013533;28;20386;-62
2021/04/18 02:57:48;;;;;;;16.73;13.45;;;9.40;70.30;;;;;;5013839;28;20084;-62
2021/04/18 03:00:14;;;;;;;17.77;13.82;;;9.40;70.40;;;;;;5013951;28;20030;-62
2021/04/18 03:02:40;;;;;;;16.55;13.52;;;9.40;70.50;;;;;;5013520;28;20449;-62
2021/04/18 03:05:07;;;;;;;16.08;13.32;;;9.40;70.80;;;;;;5013662;28;20030;-62
2021/04/18 03:07:33;;;;;;;14.20;11.95;;;9.40;70.80;;;;;;5013593;28;20030;-62
2021/04/18 03:09:59;;;;;;;14.13;11.50;;;9.40;70.50;;;;;;5013664;28;20421;-62
2021/04/18 03:12:24;;;;;;;13.50;11.88;;;9.40;70.70;;;;;;5013459;28;20045;-62
2021/04/18 03:14:50;;;;;;;14.98;12.02;;;9.40;70.70;;;;;;5012949;28;20046;-62
2021/04/18 03:17:15;;;;;;;14.18;12.40;;;9.30;70.70;;;;;;5012009;28;20030;-62
2021/04/18 03:19:41;;;;;;;15.48;12.90;;;9.30;70.70;;;;;;5012809;28;20033;-62
2021/04/18 03:22:08;;;;;;;16.98;12.50;;;9.30;70.70;;;;;;5010403;28;20034;-62
2021/04/18 03:24:36;;;;;;;15.57;12.30;;;9.30;70.80;;;;;;5011915;28;20022;-62
2021/04/18 03:27:03;;;;;;;14.63;12.60;;;9.30;70.80;;;;;;5012186;28;20470;-62
2021/04/18 03:29:28;;;;;;;16.90;12.85;;;9.30;70.80;;;;;;5011834;28;20030;-62
2021/04/18 03:31:54;;;;;;;15.50;12.13;;;9.30;70.80;;;;;;5012026;28;20373;-62
2021/04/18 03:34:20;;;;;;;14.80;12.50;;;9.30;70.80;;;;;;5011802;28;20022;-62
2021/04/18 03:36:45;;;;;;;12.90;10.90;;;9.30;70.90;;;;;;4995544;28;20028;-62
2021/04/18 03:39:11;;;;;;;15.32;11.65;;;9.30;71.00;;;;;;5013205;28;20022;-62
2021/04/18 03:41:37;;;;;;;13.18;11.10;;;9.30;71.10;;;;;;5013047;28;20033;-62
2021/04/18 03:44:03;;;;;;;12.93;11.45;;;9.30;71.40;;;;;;5013103;28;20030;-62
2021/04/18 03:46:28;;;;;;;13.98;11.30;;;9.30;71.30;;;;;;5012886;28;20030;-62
2021/04/18 03:48:54;;;;;;;13.90;11.82;;;9.30;71.20;;;;;;5012891;28;20109;-62
2021/04/18 03:51:20;;;;;;;13.25;11.38;;;9.30;71.30;;;;;;5012931;28;20058;-62
2021/04/18 03:53:45;;;;;;;14.02;11.77;;;9.30;71.40;;;;;;5012752;28;20409;-62
2021/04/18 03:56:11;;;;;;;13.10;11.00;;;9.30;71.50;;;;;;5012843;28;20473;-62
2021/04/18 03:58:37;;;;;;;13.98;11.65;;;9.40;71.60;;;;;;5013158;28;20076;-62
2021/04/18 04:01:02;;;;;;;12.10;10.82;;;9.40;71.40;;;;;;5013071;28;20427;-62
2021/04/18 04:03:28;;;;;;;13.77;11.43;;;9.40;71.60;;;;;;5012584;28;20397;-62
2021/04/18 04:05:54;;;;;;;13.05;11.55;;;9.50;71.70;;;;;;5012953;28;20069;-62
2021/04/18 04:08:19;;;;;;;14.82;12.48;;;9.50;71.50;;;;;;5012728;28;20053;-62
2021/04/18 04:10:45;;;;;;;14.10;11.35;;;9.60;71.50;;;;;;5011191;28;20504;-62
2021/04/18 04:13:11;;;;;;;13.02;11.35;;;9.60;71.40;;;;;;5002126;28;20057;-62
2021/04/18 04:15:36;;;;;;;14.18;11.60;;;9.60;71.30;;;;;;5013287;28;20061;-62
2021/04/18 04:18:02;;;;;;;14.38;11.82;;;9.70;71.40;;;;;;5013253;28;20030;-62
2021/04/18 04:20:28;;;;;;;13.38;11.88;;;9.80;71.60;;;;;;5012994;28;20040;-62
2021/04/18 04:22:53;;;;;;;15.23;12.27;;;9.90;71.50;;;;;;5013224;28;20429;-62
2021/04/18 04:25:19;;;;;;;13.45;10.93;;;10.00;71.30;;;;;;5013480;28;20030;-62
2021/04/18 04:27:45;;;;;;;14.48;11.93;;;10.00;71.20;;;;;;5015958;28;20490;-62
2021/04/18 04:30:11;;;;;;;13.55;12.13;;;10.10;71.10;;;;;;5017062;28;20026;-62
2021/04/18 04:32:37;;;;;;;14.82;11.93;;;10.20;71.30;;;;;;5016944;28;20022;-62
2021/04/18 04:35:03;;;;;;;15.77;12.40;;;10.30;71.30;;;;;;5016859;28;20075;-62
2021/04/18 04:37:28;;;;;;;14.77;12.40;;;10.40;71.40;;;;;;5017101;28;20022;-62
2021/04/18 04:39:54;;;;;;;12.63;11.30;;;10.60;71.50;;;;;;5016713;28;20022;-62
2021/04/18 04:42:20;;;;;;;13.82;12.05;;;10.70;71.20;;;;;;5016600;28;20025;-62
2021/04/18 04:44:45;;;;;;;13.07;11.65;;;10.90;71.20;;;;;;5016679;28;20053;-62
2021/04/18 04:47:11;;;;;;;13.23;11.07;;;11.10;71.00;;;;;;5016919;28;20033;-62
2021/04/18 04:49:37;;;;;;;14.10;11.80;;;11.40;70.90;;;;;;5016664;28;20599;-62
2021/04/18 04:52:03;;;;;;;14.05;12.07;;;11.60;71.10;;;;;;5016526;28;20100;-62
2021/04/18 04:54:28;;;;;;;12.38;10.52;;;12.00;71.30;;;;;;5016665;28;20141;-62
2021/04/18 04:56:54;;;;;;;14.82;11.20;;;12.60;70.60;;;;;;5016338;28;20022;-62
2021/04/18 04:59:19;;;;;;;12.35;10.70;;;13.20;69.90;;;;;;5016292;28;20018;-62
2021/04/18 05:01:45;;;;;;;13.73;11.35;;;13.90;69.20;;;;;;5016287;28;20048;-62
2021/04/18 05:04:11;;;;;;;11.90;10.70;;;14.80;67.70;;;;;;5016061;28;20056;-62
2021/04/18 05:06:36;;;;;;;13.15;11.13;;;15.50;66.20;;;;;;5016289;28;20057;-62
2021/04/18 05:09:04;;;;;;;13.63;11.07;;;16.20;64.20;;;;;;5016134;28;20033;-62
2021/04/18 05:11:30;;;;;;;11.57;10.20;;;16.70;62.40;;;;;;5016286;28;20033;-62
2021/04/18 05:13:55;;;;;;;11.75;10.60;;;17.10;61.60;;;;;;5016007;28;20534;-62
2021/04/18 05:16:21;;;;;;;13.05;11.52;;;17.40;60.80;;;;;;5016086;28;20030;-62
2021/04/18 05:18:47;;;;;;;11.55;10.35;;;17.90;59.90;;;;;;5015989;28;20032;-62
2021/04/18 05:21:13;;;;;;;13.23;11.82;;;18.40;59.10;;;;;;5015896;28;20026;-62
2021/04/18 05:23:39;;;;;;;12.10;10.82;;;18.90;58.00;;;;;;5013932;28;20034;-62
2021/04/18 05:26:04;;;;;;;12.98;11.38;;;19.30;56.90;;;;;;5016156;28;20073;-62
2021/04/18 05:28:30;;;;;;;13.25;11.48;;;19.70;56.30;;;;;;5016002;28;20029;-62
2021/04/18 05:30:57;;;;;;;13.10;11.70;;;20.10;55.20;;;;;;5015907;28;20033;-63
2021/04/18 05:33:23;;;;;;;13.13;11.23;;;20.50;53.80;;;;;;5015650;28;20097;-63
2021/04/18 05:35:49;;;;;;;15.20;12.07;;;20.80;52.30;;;;;;5015639;28;20018;-63
2021/04/18 05:38:14;;;;;;;13.68;12.27;;;20.90;51.20;;;;;;5014705;28;20026;-63
2021/04/18 05:40:40;;;;;;;13.20;11.85;;;20.60;50.80;;;;;;5015509;28;20108;-63
2021/04/18 05:43:06;;;;;;;12.93;11.60;;;20.30;51.10;;;;;;5015585;28;20512;-63
2021/04/18 05:45:31;;;;;;;15.23;11.85;;;19.80;51.60;;;;;;5015402;28;20022;-63
2021/04/18 05:47:57;;;;;;;12.68;11.38;;;19.40;51.90;;;;;;5015434;28;20045;-63
2021/04/18 05:50:23;;;;;;;13.38;11.77;;;19.00;52.60;;;;;;5015210;28;20030;-63
2021/04/18 05:52:48;;;;;;;13.60;11.90;;;18.60;53.30;;;;;;5015250;28;20030;-63
2021/04/18 05:55:14;;;;;;;14.50;12.07;;;18.20;53.80;;;;;;5015216;28;20441;-63
2021/04/18 05:57:40;;;;;;;12.63;11.32;;;17.90;54.40;;;;;;5015214;28;20109;-63
2021/04/18 06:00:07;;;;;;;12.90;11.55;;;17.60;54.70;;;;;;5015528;28;20029;-63
2021/04/18 06:02:32;;;;;;;13.10;11.68;;;17.40;55.20;;;;;;5015382;28;20030;-63
2021/04/18 06:04:58;;;;;;;15.15;12.15;;;17.20;55.20;;;;;;5015012;28;20072;-63
2021/04/18 06:07:23;;;;;;;15.45;13.75;;;17.00;55.60;;;;;;5015073;28;20482;-63
2021/04/18 06:09:49;;;;;;;13.63;11.80;;;16.90;56.00;;;;;;5014893;28;20026;-63
2021/04/18 06:12:15;;;;;;;13.68;12.05;;;16.80;56.30;;;;;;5007594;28;20077;-63
2021/04/18 06:14:40;;;;;;;13.70;11.73;;;16.70;56.40;;;;;;4995337;28;20390;-63
2021/04/18 06:17:06;;;;;;;13.98;11.45;;;16.60;56.60;;;;;;4995296;28;20558;-63
2021/04/18 06:19:32;;;;;;;13.13;10.95;;;16.60;56.90;;;;;;4995217;28;20029;-63
2021/04/18 06:21:58;;;;;;;13.07;11.45;;;16.50;57.10;;;;;;4995234;28;20101;-63
2021/04/18 06:24:24;;;;;;;12.48;10.70;;;16.50;57.40;;;;;;4995160;28;20030;-63
2021/04/18 06:26:49;;;;;;;13.68;11.57;;;16.40;57.70;;;;;;4995137;28;20034;-63
2021/04/18 06:29:15;;;;;;;12.18;10.52;;;16.30;57.70;;;;;;4995076;28;20369;-63
2021/04/18 06:31:41;;;;;;;14.75;12.00;;;16.30;57.70;;;;;;4993729;28;20049;-63
2021/04/18 06:34:06;;;;;;;13.38;11.52;;;16.30;57.80;;;;;;4995207;28;20356;-63
2021/04/18 06:36:32;;;;;;;13.90;11.88;;;16.20;57.60;;;;;;4995239;28;20026;-63
2021/04/18 06:38:58;;;;;;;13.70;11.90;;;16.20;57.40;;;;;;4995137;28;20149;-63
2021/04/18 06:41:25;;;;;;;12.38;10.75;;;16.20;57.70;;;;;;4994912;28;20057;-63
2021/04/18 06:43:52;;;;;;;13.07;10.95;;;16.10;57.80;;;;;;4994776;28;20037;-63
2021/04/18 06:46:20;;;;;;;13.73;12.13;;;16.00;58.00;;;;;;4994712;28;20050;-63
2021/04/18 06:48:47;;;;;;;12.15;10.85;;;15.80;57.90;;;;;;4995684;28;20034;-63
2021/04/18 06:51:14;;;;;;;14.73;11.77;;;15.60;58.10;;;;;;4994490;28;20033;-63
2021/04/18 06:53:40;;;;;;;14.40;10.85;;;15.40;58.40;;;;;;5013286;28;20108;-63
2021/04/18 06:56:06;;;;;;;13.52;11.30;;;15.30;58.80;;;;;;5014075;28;20054;-63
2021/04/18 06:58:32;;;;;;;15.10;11.68;;;15.10;59.30;;;;;;5014121;28;20026;-63
2021/04/18 07:00:58;;;;;;;14.65;11.98;;;15.00;59.70;;;;;;5011231;28;20021;-63
2021/04/18 07:03:25;;;;;;;13.88;11.57;;;15.00;59.70;;;;;;5006902;28;20092;-63
2021/04/18 07:05:55;;;;;;;16.48;13.48;;;15.00;59.70;;;;;;5013620;28;20033;-63
2021/04/18 07:08:24;;;;;;;16.50;12.00;;;15.00;59.70;;;;;;5013577;28;20034;-63
2021/04/18 07:10:51;;;;;;;16.25;11.95;;;15.00;59.70;;;;;;5013970;28;20440;-63
2021/04/18 17:06:36;;;;;;;9.65;8.27;;;12.60;71.40;;;;;;5004422;28;20053;-65
2021/04/18 17:09:03;;;;;;;10.85;8.15;;;12.50;71.10;;;;;;5006613;28;20030;-63
2021/04/18 17:11:30;;;;;;;10.90;8.48;;;12.50;71.50;;;;;;5015619;28;20088;-64
2021/04/18 17:13:56;;;;;;;11.23;8.68;;;12.60;71.70;;;;;;5015047;28;20025;-64
2021/04/18 17:16:22;;;;;;;12.73;9.55;;;12.50;71.70;;;;;;5012166;28;20030;-63
2021/04/18 17:18:47;;;;;;;11.10;9.00;;;12.50;72.00;;;;;;5011673;28;20025;-63
2021/04/18 17:21:13;;;;;;;11.70;9.32;;;12.50;72.00;;;;;;5013337;28;20203;-64
2021/04/18 17:23:39;;;;;;;12.55;9.82;;;12.50;72.20;;;;;;5016178;28;20076;-64
2021/04/18 17:26:05;;;;;;;11.88;9.70;;;12.50;72.30;;;;;;5012510;28;20030;-64
2021/04/18 17:28:31;;;;;;;11.63;9.85;;;12.50;72.30;;;;;;5007977;28;20473;-64
2021/04/18 17:30:57;;;;;;;13.07;10.00;;;12.50;72.40;;;;;;5008434;28;20096;-64
2021/04/18 17:33:22;;;;;;;13.63;10.50;;;12.50;72.50;;;;;;5007456;28;20026;-63
2021/04/18 17:35:48;;;;;;;12.52;10.23;;;12.50;72.60;;;;;;5007019;28;20022;-63
2021/04/18 17:38:14;;;;;;;12.63;10.68;;;12.50;72.60;;;;;;5010076;28;20029;-63
2021/04/18 17:40:40;;;;;;;12.65;10.52;;;12.50;72.80;;;;;;5014761;28;20034;-64
2021/04/18 17:43:06;;;;;;;13.52;10.90;;;12.50;72.80;;;;;;5014948;28;20022;-65
2021/04/18 17:45:31;;;;;;;13.90;11.00;;;12.50;72.90;;;;;;5012363;28;20084;-63
2021/04/18 17:47:57;;;;;;;12.82;10.60;;;12.50;73.10;;;;;;5009510;28;20496;-63
2021/04/18 17:50:23;;;;;;;12.68;10.90;;;12.50;73.20;;;;;;5013774;28;20040;-63
2021/04/18 17:52:49;;;;;;;14.32;12.07;;;12.50;73.20;;;;;;5013015;28;20119;-63
2021/04/18 17:55:15;;;;;;;13.90;11.25;;;12.40;73.30;;;;;;5012918;28;20042;-63
2021/04/18 17:57:42;;;;;;;12.85;11.43;;;12.40;73.40;;;;;;5012813;28;20032;-63
2021/04/18 18:00:11;;;;;;;12.93;10.75;;;12.40;73.50;;;;;;5013570;28;20080;-63
2021/04/18 18:02:38;;;;;;;13.57;10.98;;;12.40;73.70;;;;;;5012352;28;20072;-63
2021/04/18 18:05:04;;;;;;;13.13;11.13;;;12.40;73.70;;;;;;5012781;28;20117;-64
2021/04/18 18:07:30;;;;;;;12.25;10.27;;;12.40;73.80;;;;;;5011083;28;20037;-63
2021/04/18 18:09:56;;;;;;;13.55;11.07;;;12.40;73.80;;;;;;5014863;28;20104;-62
2021/04/18 18:12:22;;;;;;;11.80;10.48;;;12.40;73.80;;;;;;5015422;28;20405;-62
2021/04/18 18:14:49;;;;;;;13.40;10.55;;;12.40;74.10;;;;;;5013293;28;20577;-62
2021/04/18 18:17:15;;;;;;;13.27;9.90;;;12.30;74.10;;;;;;5010189;28;20478;-62
2021/04/18 18:19:41;;;;;;;12.40;9.90;;;12.30;74.10;;;;;;5013650;28;20026;-62
2021/04/18 18:22:07;;;;;;;14.38;10.80;;;12.30;74.30;;;;;;5014162;28;20486;-62
2021/04/18 18:24:34;;;;;;;11.60;9.27;;;12.30;74.10;;;;;;5014720;28;20037;-62
2021/04/18 18:26:59;;;;;;;12.57;9.95;;;12.30;74.10;;;;;;5012696;28;20041;-62
2021/04/18 18:29:25;;;;;;;12.73;9.68;;;12.30;74.00;;;;;;5014045;28;20034;-62
2021/04/18 18:31:50;;;;;;;13.32;9.98;;;12.30;74.20;;;;;;5011755;28;20033;-62
2021/04/18 18:34:16;;;;;;;11.38;9.35;;;12.30;74.20;;;;;;5013331;28;20037;-62
2021/04/18 18:36:42;;;;;;;10.80;9.65;;;12.30;74.30;;;;;;5013354;28;20018;-62
2021/04/18 18:39:08;;;;;;;11.65;9.60;;;12.30;74.40;;;;;;5010212;28;20465;-62
2021/04/18 18:41:35;;;;;;;11.25;9.18;;;12.30;74.40;;;;;;5008891;28;20057;-62
2021/04/18 18:44:01;;;;;;;12.65;9.25;;;12.30;74.40;;;;;;5009273;28;20056;-62
2021/04/18 18:46:27;;;;;;;13.20;9.50;;;12.30;74.60;;;;;;5008184;28;21726;-62
2021/04/18 18:48:53;;;;;;;11.38;9.73;;;12.30;74.60;;;;;;5008600;28;20061;-62
2021/04/18 18:51:18;;;;;;;11.93;9.40;;;12.30;74.60;;;;;;5009087;28;20076;-62
2021/04/18 18:53:46;;;;;;;12.00;9.68;;;12.30;74.50;;;;;;5008875;28;20022;-62
2021/04/18 18:56:21;;;;;;;11.45;9.13;;;12.20;74.60;;;;;;5007366;28;20034;-62
2021/04/18 18:58:48;;;;;;;12.15;9.95;;;12.20;74.70;;;;;;5009927;28;20050;-62
2021/04/18 19:01:18;;;;;;;11.32;9.48;;;12.20;74.70;;;;;;5014046;28;20101;-62
2021/04/18 19:03:48;;;;;;;11.35;9.38;;;12.10;74.90;;;;;;5012223;28;20084;-62
2021/04/18 19:06:14;;;;;;;11.80;10.05;;;12.10;74.90;;;;;;5010123;28;20429;-63
2021/04/18 19:08:40;;;;;;;12.65;10.15;;;12.00;75.10;;;;;;5010253;28;20112;-62
2021/04/18 19:11:06;;;;;;;13.00;10.55;;;12.00;75.30;;;;;;5012280;28;20773;-62
2021/04/18 19:13:32;;;;;;;12.05;9.60;;;12.00;75.40;;;;;;5012384;28;20034;-62
2021/04/18 19:15:57;;;;;;;12.52;10.00;;;12.00;75.40;;;;;;5012952;28;20044;-62
2021/04/18 19:18:23;;;;;;;10.73;9.40;;;11.90;75.50;;;;;;4993425;28;20029;-62
2021/04/18 19:20:49;;;;;;;12.68;10.07;;;11.90;75.60;;;;;;5009873;28;20036;-63
2021/04/18 19:23:16;;;;;;;11.52;9.63;;;11.80;75.70;;;;;;5011632;28;20034;-62
2021/04/18 19:25:42;;;;;;;12.32;9.50;;;11.80;75.90;;;;;;5009140;28;20056;-63
2021/04/18 19:28:07;;;;;;;12.10;9.93;;;11.80;76.00;;;;;;5002461;28;20037;-62
2021/04/18 19:30:35;;;;;;;12.65;10.13;;;11.80;76.30;;;;;;5011289;28;20022;-63
2021/04/18 19:33:01;;;;;;;14.57;10.55;;;11.70;76.50;;;;;;5011961;28;20022;-63
2021/04/18 19:35:28;;;;;;;13.15;10.60;;;11.70;76.60;;;;;;5011390;28;20036;-62
2021/04/18 19:37:54;;;;;;;15.52;11.68;;;11.60;76.80;;;;;;5010454;28;20333;-62
2021/04/18 19:40:20;;;;;;;13.48;10.85;;;11.60;77.00;;;;;;5011651;28;20061;-62
2021/04/18 19:42:46;;;;;;;16.58;12.00;;;11.50;77.30;;;;;;5011762;28;20057;-62
2021/04/18 19:45:13;;;;;;;13.82;10.90;;;11.50;77.70;;;;;;5011715;28;20065;-62
2021/04/18 19:47:39;;;;;;;11.27;8.52;;;11.40;77.60;;;;;;5013664;28;20026;-64
2021/04/18 19:50:06;;;;;;;11.63;9.18;;;11.40;77.70;;;;;;5012084;28;20030;-62
2021/04/18 19:52:31;;;;;;;10.25;8.27;;;11.30;77.60;;;;;;5013444;28;20049;-60
2021/04/18 19:54:57;;;;;;;10.32;8.18;;;11.30;77.50;;;;;;5012314;28;20140;-62
2021/04/18 19:57:23;;;;;;;9.57;8.20;;;11.20;77.40;;;;;;5011969;28;20029;-62
2021/04/18 19:59:49;;;;;;;9.77;7.28;;;11.10;77.30;;;;;;5013314;28;20018;-62
2021/04/18 20:02:14;;;;;;;8.25;6.40;;;11.10;77.30;;;;;;5011848;28;20057;-62
2021/04/18 20:04:40;;;;;;;7.72;6.22;;;11.00;77.20;;;;;;5012692;28;20486;-62
2021/04/18 20:07:06;;;;;;;6.97;6.03;;;10.90;77.30;;;;;;5011512;28;20187;-62
2021/04/18 20:09:33;;;;;;;7.47;6.65;;;10.90;77.30;;;;;;5012236;28;20462;-62
2021/04/18 20:11:59;;;;;;;8.35;6.70;;;10.90;77.50;;;;;;5012789;28;20501;-62
2021/04/18 20:14:25;;;;;;;7.75;6.45;;;10.80;77.50;;;;;;5013174;28;20141;-62
2021/04/18 20:16:51;;;;;;;8.95;6.20;;;10.80;77.70;;;;;;5011714;28;20485;-62
2021/04/18 20:19:16;;;;;;;6.78;5.55;;;10.80;77.80;;;;;;5012257;28;20058;-62
2021/04/18 20:21:42;;;;;;;8.18;6.00;;;10.70;77.40;;;;;;5012281;28;20030;-62
2021/04/18 20:24:10;;;;;;;7.28;5.68;;;10.70;77.30;;;;;;5012803;28;20196;-62
2021/04/18 20:26:35;;;;;;;8.30;5.47;;;10.60;77.40;;;;;;5011976;28;20034;-62
2021/04/18 20:29:01;;;;;;;6.63;5.43;;;10.50;77.40;;;;;;5012431;28;20037;-62
2021/04/18 20:31:27;;;;;;;6.50;5.53;;;10.50;77.70;;;;;;4993615;28;20104;-62
2021/04/18 20:33:52;;;;;;;7.22;5.50;;;10.50;77.80;;;;;;4993981;28;20022;-62
2021/04/18 20:36:18;;;;;;;5.97;4.75;;;10.40;77.70;;;;;;4993846;28;20034;-62
2021/04/18 20:38:45;;;;;;;5.90;4.90;;;10.40;77.60;;;;;;4993561;28;20027;-62
2021/04/18 20:41:10;;;;;;;8.00;5.15;;;10.40;77.60;;;;;;4993528;28;20034;-62
2021/04/18 20:43:36;;;;;;;5.40;4.75;;;10.50;77.60;;;;;;4992824;28;20041;-62
2021/04/18 20:46:03;;;;;;;7.13;4.88;;;10.40;77.30;;;;;;4992735;28;20089;-62
2021/04/18 20:48:29;;;;;;;5.55;4.55;;;10.40;77.20;;;;;;4992314;28;20543;-62
2021/04/18 20:50:55;;;;;;;4.95;4.20;;;10.40;77.00;;;;;;4993160;28;20150;-62
2021/04/18 20:53:25;;;;;;;6.55;4.90;;;10.40;76.80;;;;;;4991906;28;20386;-62
2021/04/18 20:55:50;;;;;;;5.32;4.35;;;10.30;76.70;;;;;;4993007;28;20026;-62
2021/04/18 20:58:16;;;;;;;5.68;4.45;;;10.30;77.30;;;;;;4993169;28;20030;-62
2021/04/18 21:00:41;;;;;;;5.28;4.45;;;10.30;76.70;;;;;;4993082;28;20077;-62
2021/04/18 21:03:07;;;;;;;5.40;4.63;;;10.20;76.80;;;;;;4993276;28;20081;-62
2021/04/18 21:05:33;;;;;;;5.90;4.50;;;10.20;76.90;;;;;;4992916;28;20051;-62
2021/04/18 21:07:58;;;;;;;5.45;4.40;;;10.20;76.80;;;;;;4993160;28;20030;-62
2021/04/18 21:10:24;;;;;;;6.03;4.85;;;10.10;76.70;;;;;;4996680;28;20023;-62
2021/04/18 21:12:50;;;;;;;6.32;4.85;;;10.10;76.70;;;;;;4996523;28;20466;-62
2021/04/18 21:15:15;;;;;;;5.55;4.55;;;10.10;76.70;;;;;;4979060;28;20032;-62
2021/04/18 21:17:41;;;;;;;5.32;4.63;;;10.00;76.80;;;;;;4996450;28;20023;-62
2021/04/18 21:20:09;;;;;;;5.05;4.45;;;10.00;76.90;;;;;;4996700;28;20026;-62
2021/04/18 21:22:35;;;;;;;6.75;5.00;;;10.00;77.10;;;;;;4996665;28;20441;-62
2021/04/18 21:25:02;;;;;;;5.53;4.93;;;9.90;77.40;;;;;;4996619;28;20368;-62
2021/04/18 21:27:27;;;;;;;5.43;4.65;;;9.90;77.50;;;;;;5010363;28;20037;-62
2021/04/18 21:29:53;;;;;;;6.50;5.25;;;9.90;77.40;;;;;;5015671;28;20390;-62
2021/04/18 21:32:19;;;;;;;6.38;5.38;;;9.90;77.40;;;;;;5015814;28;20022;-62
2021/04/18 21:34:44;;;;;;;7.07;5.38;;;9.90;77.70;;;;;;5016063;28;20029;-62
2021/04/18 21:37:10;;;;;;;6.70;5.68;;;9.90;77.50;;;;;;5015821;28;20025;-62
2021/04/18 21:39:36;;;;;;;6.72;5.55;;;9.90;77.50;;;;;;5015689;28;20029;-62
2021/04/18 21:42:02;;;;;;;5.68;4.93;;;9.80;77.40;;;;;;5015768;28;20474;-62
2021/04/18 21:44:28;;;;;;;6.53;5.07;;;9.80;78.00;;;;;;5015520;28;20112;-62
2021/04/18 21:46:53;;;;;;;7.15;5.70;;;9.80;77.40;;;;;;5015648;28;20063;-62
2021/04/18 21:49:19;;;;;;;6.88;5.30;;;9.70;77.50;;;;;;5016082;28;20374;-62
2021/04/18 21:51:45;;;;;;;7.00;5.65;;;9.60;77.70;;;;;;5015694;28;20121;-62
2021/04/18 21:54:11;;;;;;;7.10;5.38;;;9.60;77.80;;;;;;5015441;28;20409;-62
2021/04/18 21:56:37;;;;;;;6.63;5.32;;;9.60;77.90;;;;;;5015589;28;20018;-62
2021/04/18 21:59:03;;;;;;;7.35;5.68;;;9.50;77.80;;;;;;5015236;28;20105;-62
2021/04/18 22:01:32;;;;;;;7.53;5.85;;;9.50;78.00;;;;;;5015434;28;20030;-62
2021/04/18 22:03:58;;;;;;;7.78;5.90;;;9.40;78.30;;;;;;5015233;28;20048;-62
2021/04/18 22:06:24;;;;;;;8.80;6.35;;;9.40;78.30;;;;;;5015127;28;20065;-62
2021/04/18 22:08:50;;;;;;;7.93;5.68;;;9.30;78.50;;;;;;5015413;28;20535;-62
2021/04/18 22:11:16;;;;;;;7.30;5.80;;;9.30;78.60;;;;;;5015121;28;20030;-62
2021/04/18 22:13:41;;;;;;;8.52;5.90;;;9.20;78.20;;;;;;5015283;28;20057;-62
2021/04/18 22:16:07;;;;;;;8.82;6.65;;;9.20;78.30;;;;;;5015067;28;20033;-62
2021/04/18 22:18:33;;;;;;;8.50;6.65;;;9.20;78.50;;;;;;5015014;28;20033;-62
2021/04/18 22:20:58;;;;;;;14.90;5.90;;;9.20;78.90;;;;;;5014419;28;20072;-62
2021/04/18 22:23:24;;;;;;;12.48;6.70;;;9.10;79.00;;;;;;5015159;28;20504;-62